Time;durP1;ratioP1;P1;durP2;ratioP2;P2;SDS_P1;SDS_P2;PMS_P1;PMS_P2;Temp;Humidity;BMP_temperature;BMP_pressure;BME280_temperature;BME280_humidity;BME280_pressure;Samples;Min_cycle;Max_cycle;Signal;HPM_P1;HPM_P2
2021/10/29 00:02:20;;;;;;;79.30;44.92;;;;;;;;;;5053145;28;20033;-49
2021/10/29 00:04:46;;;;;;;102.38;55.13;;;;;;;;;;5053378;28;20021;-50
2021/10/29 00:07:12;;;;;;;80.00;45.75;;;;;;;;;;5053262;28;20049;-50
2021/10/29 00:09:39;;;;;;;96.05;51.83;;;;;;;;;;5053293;28;20055;-49
2021/10/29 00:12:05;;;;;;;92.70;51.17;;;;;;;;;;5053270;28;20025;-50
2021/10/29 00:14:33;;;;;;;92.63;50.15;;;;;;;;;;5053260;28;20028;-50
2021/10/29 00:17:00;;;;;;;96.35;55.28;;;;;;;;;;5053433;28;20096;-50
2021/10/29 00:19:26;;;;;;;90.38;50.08;;;;;;;;;;5052893;28;20077;-49
2021/10/29 00:21:53;;;;;;;87.65;48.30;;;;;;;;;;5053103;28;20083;-50
2021/10/29 00:24:19;;;;;;;87.88;50.60;;;;;;;;;;5053194;28;20076;-50
2021/10/29 00:26:45;;;;;;;79.20;45.83;;;;;;;;;;5053118;28;20029;-50
2021/10/29 00:29:12;;;;;;;85.40;44.70;;;;;;;;;;5053156;28;20031;-51
2021/10/29 00:31:38;;;;;;;83.88;46.85;;;;;;;;;;5051997;28;20107;-51
2021/10/29 00:34:04;;;;;;;82.38;45.38;;;;;;;;;;5053178;28;20442;-51
2021/10/29 00:36:30;;;;;;;80.93;45.20;;;;;;;;;;5056208;28;20049;-50
2021/10/29 00:38:56;;;;;;;88.20;46.80;;;;;;;;;;5057257;28;20017;-51
2021/10/29 00:41:23;;;;;;;81.05;43.83;;;;;;;;;;5057419;28;20056;-51
2021/10/29 00:43:49;;;;;;;80.25;45.15;;;;;;;;;;5057121;28;20025;-51
2021/10/29 00:46:15;;;;;;;76.28;44.05;;;;;;;;;;5057130;28;20100;-51
2021/10/29 00:48:46;;;;;;;85.90;47.80;;;;;;;;;;5057409;28;20371;-51
2021/10/29 00:51:14;;;;;;;78.55;44.20;;;;;;;;;;5057209;28;20107;-51
2021/10/29 00:53:41;;;;;;;80.30;43.35;;;;;;;;;;5056971;28;20504;-51
2021/10/29 00:56:07;;;;;;;80.63;42.90;;;;;;;;;;5056902;28;20099;-51
2021/10/29 00:58:34;;;;;;;79.55;43.40;;;;;;;;;;5056912;28;20107;-50
2021/10/29 01:01:00;;;;;;;71.50;42.35;;;;;;;;;;5056640;28;20064;-50
2021/10/29 01:03:26;;;;;;;81.57;44.58;;;;;;;;;;5056642;28;20029;-50
2021/10/29 01:05:52;;;;;;;76.93;42.47;;;;;;;;;;5056873;28;20033;-48
2021/10/29 01:08:19;;;;;;;73.40;41.85;;;;;;;;;;5056830;28;20037;-51
2021/10/29 01:10:47;;;;;;;72.78;41.55;;;;;;;;;;5056719;28;20048;-50
2021/10/29 01:13:14;;;;;;;86.55;44.22;;;;;;;;;;5056921;28;20028;-49
2021/10/29 01:15:40;;;;;;;74.72;40.78;;;;;;;;;;5056377;28;20103;-50
2021/10/29 01:18:06;;;;;;;74.50;42.60;;;;;;;;;;5056207;28;20116;-50
2021/10/29 01:20:33;;;;;;;72.32;41.35;;;;;;;;;;5056338;28;20057;-50
2021/10/29 01:22:59;;;;;;;74.78;42.60;;;;;;;;;;5056132;28;20029;-50
2021/10/29 01:25:25;;;;;;;74.35;40.78;;;;;;;;;;5056124;28;20500;-50
2021/10/29 01:27:51;;;;;;;70.35;41.85;;;;;;;;;;5056370;28;20062;-52
2021/10/29 01:30:17;;;;;;;70.07;40.13;;;;;;;;;;5056036;28;20104;-50
2021/10/29 01:32:44;;;;;;;74.93;42.25;;;;;;;;;;5056217;28;20074;-51
2021/10/29 01:35:11;;;;;;;84.55;44.33;;;;;;;;;;5056341;28;20017;-50
2021/10/29 01:37:40;;;;;;;77.68;41.65;;;;;;;;;;5056101;28;20461;-50
2021/10/29 01:40:10;;;;;;;66.57;41.28;;;;;;;;;;5056115;28;20032;-50
2021/10/29 01:42:37;;;;;;;67.80;38.85;;;;;;;;;;5056068;28;20370;-50
2021/10/29 01:45:09;;;;;;;68.85;39.45;;;;;;;;;;5055960;28;20025;-50
2021/10/29 01:47:35;;;;;;;;;;;;;;;;;;5055811;28;20107;-50
2021/10/29 01:50:01;;;;;;;68.07;35.90;;;;;;;;;;5055775;28;20369;-51
2021/10/29 01:52:28;;;;;;;61.70;37.88;;;;;;;;;;5055878;28;20079;-50
2021/10/29 01:54:54;;;;;;;66.80;38.45;;;;;;;;;;5054814;28;20086;-50
2021/10/29 01:57:21;;;;;;;64.05;37.15;;;;;;;;;;5055866;28;20036;-50
2021/10/29 01:59:48;;;;;;;65.30;37.53;;;;;;;;;;5055600;28;20029;-50
2021/10/29 02:02:14;;;;;;;67.70;38.17;;;;;;;;;;5055677;28;20033;-50
2021/10/29 02:04:41;;;;;;;63.40;36.80;;;;;;;;;;5055672;28;20025;-50
2021/10/29 02:07:07;;;;;;;66.80;37.83;;;;;;;;;;5055590;28;20036;-50
2021/10/29 02:09:33;;;;;;;64.35;37.20;;;;;;;;;;5055512;28;20096;-50
2021/10/29 02:11:59;;;;;;;62.63;36.03;;;;;;;;;;5055829;28;20025;-50
2021/10/29 02:14:25;;;;;;;63.45;35.53;;;;;;;;;;5055296;28;20079;-50
2021/10/29 02:16:52;;;;;;;65.97;37.17;;;;;;;;;;5055693;28;20025;-49
2021/10/29 02:19:18;;;;;;;67.40;36.90;;;;;;;;;;5055240;28;20501;-50
2021/10/29 02:21:46;;;;;;;64.10;36.13;;;;;;;;;;5055441;28;20033;-50
2021/10/29 02:24:13;;;;;;;65.55;37.00;;;;;;;;;;5055230;28;20492;-50
2021/10/29 02:26:39;;;;;;;59.70;36.67;;;;;;;;;;5055244;28;20041;-50
2021/10/29 02:29:05;;;;;;;62.60;35.65;;;;;;;;;;5055104;28;20032;-51
2021/10/29 02:31:32;;;;;;;63.53;36.28;;;;;;;;;;5055152;28;20028;-50
2021/10/29 02:33:58;;;;;;;67.32;35.50;;;;;;;;;;5055135;28;20439;-50
2021/10/29 02:36:24;;;;;;;62.53;37.50;;;;;;;;;;5055110;28;20401;-50
2021/10/29 02:38:50;;;;;;;77.55;42.97;;;;;;;;;;5055124;28;20068;-50
2021/10/29 02:41:16;;;;;;;80.63;44.50;;;;;;;;;;5054941;28;20020;-51
2021/10/29 02:43:43;;;;;;;92.80;49.75;;;;;;;;;;5054753;28;20041;-51
2021/10/29 02:46:09;;;;;;;72.75;38.80;;;;;;;;;;5054317;28;20389;-50
2021/10/29 02:48:36;;;;;;;66.30;37.78;;;;;;;;;;5054653;28;20025;-50
2021/10/29 02:51:02;;;;;;;57.08;34.97;;;;;;;;;;5054859;28;20027;-50
2021/10/29 02:53:30;;;;;;;65.35;36.88;;;;;;;;;;5054843;28;20385;-51
2021/10/29 02:55:57;;;;;;;59.03;34.50;;;;;;;;;;5054908;28;20021;-50
2021/10/29 02:58:26;;;;;;;57.03;35.20;;;;;;;;;;5054058;28;20017;-50
2021/10/29 03:00:52;;;;;;;59.88;34.42;;;;;;;;;;5054133;28;20078;-50
2021/10/29 03:03:18;;;;;;;55.78;34.90;;;;;;;;;;5054489;28;20485;-50
2021/10/29 03:05:45;;;;;;;61.25;35.05;;;;;;;;;;5054769;28;20036;-50
2021/10/29 03:08:11;;;;;;;62.65;35.92;;;;;;;;;;5054354;28;20024;-50
2021/10/29 03:10:37;;;;;;;57.97;34.75;;;;;;;;;;5054345;28;20100;-50
2021/10/29 03:13:06;;;;;;;61.13;35.55;;;;;;;;;;5054419;28;20448;-50
2021/10/29 03:15:32;;;;;;;59.15;35.53;;;;;;;;;;5054091;28;20035;-51
2021/10/29 03:17:58;;;;;;;57.58;34.80;;;;;;;;;;5053954;28;20036;-50
2021/10/29 03:20:24;;;;;;;54.10;33.60;;;;;;;;;;5053996;28;20029;-50
2021/10/29 03:22:51;;;;;;;54.78;34.00;;;;;;;;;;5053966;28;20112;-50
2021/10/29 03:25:17;;;;;;;59.22;34.90;;;;;;;;;;5054021;28;20075;-50
2021/10/29 03:27:44;;;;;;;61.50;35.90;;;;;;;;;;5053960;28;20029;-50
2021/10/29 03:30:11;;;;;;;51.95;33.35;;;;;;;;;;5053896;28;20465;-51
2021/10/29 03:32:37;;;;;;;54.65;31.83;;;;;;;;;;5053975;28;20099;-50
2021/10/29 03:35:04;;;;;;;55.22;33.03;;;;;;;;;;5054427;28;20017;-51
2021/10/29 03:46:14;;;;;;;52.38;31.25;;;;;;;;;;5053688;28;20028;-51
2021/10/29 03:55:59;;;;;;;57.00;31.27;;;;;;;;;;5053741;28;20083;-50
2021/10/29 03:58:25;;;;;;;52.28;31.35;;;;;;;;;;5053731;28;20500;-50
2021/10/29 04:00:52;;;;;;;56.45;32.72;;;;;;;;;;5053448;28;20029;-50
2021/10/29 04:03:18;;;;;;;58.65;33.25;;;;;;;;;;5053486;28;20033;-50
2021/10/29 04:05:45;;;;;;;53.85;32.00;;;;;;;;;;5053525;28;20031;-51
2021/10/29 04:08:14;;;;;;;61.05;34.45;;;;;;;;;;5053691;28;20103;-51
2021/10/29 04:10:42;;;;;;;62.13;34.38;;;;;;;;;;5053441;28;20021;-50
2021/10/29 04:13:10;;;;;;;61.78;35.45;;;;;;;;;;5053429;28;20406;-50
2021/10/29 04:15:38;;;;;;;58.40;35.72;;;;;;;;;;5053234;28;20032;-50
2021/10/29 04:18:04;;;;;;;58.95;35.05;;;;;;;;;;5052850;28;20028;-50
2021/10/29 04:20:32;;;;;;;63.13;35.65;;;;;;;;;;5053120;28;20072;-50
2021/10/29 04:23:00;;;;;;;62.10;37.03;;;;;;;;;;5053261;28;20485;-51
2021/10/29 04:25:27;;;;;;;69.38;38.20;;;;;;;;;;5053270;28;20020;-50
2021/10/29 04:28:04;;;;;;;65.45;38.75;;;;;;;;;;5052180;28;20401;-51
2021/10/29 04:30:30;;;;;;;71.88;42.35;;;;;;;;;;5053132;28;20013;-51
2021/10/29 04:33:02;;;;;;;64.47;37.50;;;;;;;;;;5053351;28;20079;-51
2021/10/29 04:35:29;;;;;;;68.68;38.60;;;;;;;;;;5052449;28;20013;-50
2021/10/29 04:37:55;;;;;;;71.95;41.13;;;;;;;;;;5053491;28;20392;-51
2021/10/29 04:40:21;;;;;;;74.43;42.88;;;;;;;;;;5052944;28;20021;-50
2021/10/29 04:42:47;;;;;;;84.95;46.17;;;;;;;;;;5052813;28;20040;-50
2021/10/29 04:45:15;;;;;;;71.93;42.60;;;;;;;;;;5052988;28;20380;-51
2021/10/29 04:47:44;;;;;;;85.43;44.50;;;;;;;;;;5052832;28;20029;-49
2021/10/29 04:50:10;;;;;;;82.28;42.33;;;;;;;;;;5052865;28;20017;-50
2021/10/29 04:52:36;;;;;;;68.03;36.70;;;;;;;;;;5052957;28;20033;-50
2021/10/29 04:55:03;;;;;;;63.08;36.30;;;;;;;;;;5051946;28;20029;-50
2021/10/29 04:57:29;;;;;;;64.00;37.03;;;;;;;;;;5052984;28;20427;-49
2021/10/29 04:59:58;;;;;;;66.85;37.60;;;;;;;;;;5052970;28;20029;-49
2021/10/29 05:02:24;;;;;;;58.35;34.78;;;;;;;;;;5052779;28;20036;-50
2021/10/29 05:04:50;;;;;;;68.40;35.72;;;;;;;;;;5052789;28;20484;-50
2021/10/29 05:07:16;;;;;;;62.15;37.95;;;;;;;;;;5052867;28;20102;-50
2021/10/29 05:09:42;;;;;;;63.35;37.67;;;;;;;;;;5052884;28;20025;-51
2021/10/29 05:12:09;;;;;;;61.47;39.45;;;;;;;;;;5052821;28;20020;-50
2021/10/29 05:14:35;;;;;;;65.95;38.97;;;;;;;;;;5052815;28;20370;-50
2021/10/29 05:17:01;;;;;;;59.40;35.28;;;;;;;;;;5052481;28;20466;-49
2021/10/29 05:19:27;;;;;;;63.47;35.92;;;;;;;;;;5052269;28;20386;-49
2021/10/29 05:21:53;;;;;;;61.10;37.10;;;;;;;;;;5052790;28;20061;-49
2021/10/29 05:24:20;;;;;;;61.15;35.90;;;;;;;;;;5056366;28;20028;-49
2021/10/29 05:26:46;;;;;;;63.63;37.22;;;;;;;;;;5056345;28;20017;-49
2021/10/29 05:29:12;;;;;;;63.03;37.50;;;;;;;;;;5056369;28;20104;-49
2021/10/29 05:31:38;;;;;;;63.35;36.72;;;;;;;;;;5056145;28;20037;-49
2021/10/29 05:34:04;;;;;;;58.17;35.38;;;;;;;;;;5056161;28;20028;-50
2021/10/29 05:36:30;;;;;;;61.13;35.38;;;;;;;;;;5056127;28;20377;-50
2021/10/29 05:38:57;;;;;;;63.40;35.95;;;;;;;;;;5056146;28;20056;-49
2021/10/29 05:41:23;;;;;;;60.47;34.50;;;;;;;;;;5056116;28;20028;-49
2021/10/29 05:43:49;;;;;;;56.40;34.72;;;;;;;;;;5055926;28;20064;-49
2021/10/29 05:46:16;;;;;;;48.53;32.30;;;;;;;;;;5055198;28;20025;-48
2021/10/29 05:48:43;;;;;;;61.35;32.03;;;;;;;;;;5055772;28;20033;-49
2021/10/29 05:51:10;;;;;;;54.78;31.60;;;;;;;;;;5055853;28;20396;-49
2021/10/29 05:56:14;;;;;;;49.50;31.42;;;;;;;;;;5055938;28;20033;-49
2021/10/29 05:58:40;;;;;;;47.22;28.52;;;;;;;;;;5055761;28;20064;-50
2021/10/29 06:01:09;;;;;;;46.60;28.33;;;;;;;;;;5055538;28;20028;-50
2021/10/29 06:03:35;;;;;;;49.30;29.70;;;;;;;;;;5055531;28;20037;-50
2021/10/29 06:06:01;;;;;;;46.67;29.15;;;;;;;;;;5055667;28;20071;-49
2021/10/29 06:08:30;;;;;;;50.45;29.70;;;;;;;;;;5054375;28;20115;-50
2021/10/29 06:10:56;;;;;;;48.17;29.80;;;;;;;;;;5055530;28;20095;-50
2021/10/29 06:13:22;;;;;;;48.70;30.70;;;;;;;;;;5055462;28;20061;-49
2021/10/29 06:15:51;;;;;;;47.03;29.15;;;;;;;;;;5055271;28;20024;-50
2021/10/29 06:18:23;;;;;;;46.40;30.17;;;;;;;;;;5055020;28;20500;-49
2021/10/29 06:20:55;;;;;;;50.65;30.90;;;;;;;;;;5055502;28;20040;-50
2021/10/29 06:23:26;;;;;;;50.38;31.42;;;;;;;;;;5055127;28;20064;-52
2021/10/29 06:25:55;;;;;;;49.03;29.85;;;;;;;;;;5055301;28;20029;-50
2021/10/29 06:28:33;;;;;;;50.42;30.90;;;;;;;;;;5055160;28;20039;-50
2021/10/29 06:30:59;;;;;;;44.78;29.35;;;;;;;;;;5055205;28;20029;-50
2021/10/29 06:33:25;;;;;;;50.65;29.00;;;;;;;;;;5054872;28;20025;-50
2021/10/29 06:35:55;;;;;;;48.78;29.23;;;;;;;;;;5055106;28;20029;-50
2021/10/29 06:38:25;;;;;;;46.00;28.23;;;;;;;;;;5054564;28;20025;-50
2021/10/29 06:40:52;;;;;;;47.00;30.00;;;;;;;;;;5053565;28;20489;-50
2021/10/29 06:46:22;;;;;;;44.17;28.58;;;;;;;;;;5029528;28;20065;-49
2021/10/29 06:59:42;;;;;;;34.40;23.98;;;;;;;;;;5032900;28;20040;-50
2021/10/29 07:40:40;;;;;;;27.35;19.20;;;;;;;;;;4953859;29;20042;-53
2021/10/29 07:43:10;;;;;;;27.42;18.58;;;;;;;;;;4953783;28;20425;-53
2021/10/29 07:45:36;;;;;;;30.23;22.42;;;;;;;;;;4953160;28;20439;-53
2021/10/29 07:48:02;;;;;;;61.63;55.28;;;;;;;;;;4953676;29;20078;-54
2021/10/29 07:50:29;;;;;;;26.17;16.70;;;;;;;;;;4962054;28;20039;-53
2021/10/29 07:52:59;;;;;;;24.17;18.08;;;;;;;;;;5033786;28;20029;-54
2021/10/29 07:55:26;;;;;;;34.47;17.45;;;;;;;;;;5033933;28;20037;-54
2021/10/29 07:57:59;;;;;;;32.20;23.25;;;;;;;;;;5034009;28;20022;-56
2021/10/29 08:00:25;;;;;;;25.85;21.42;;;;;;;;;;5033759;28;20079;-54
2021/10/29 08:02:51;;;;;;;29.83;21.70;;;;;;;;;;5033441;28;20113;-54
2021/10/29 08:05:17;;;;;;;29.20;17.83;;;;;;;;;;5033546;28;20167;-55
2021/10/29 08:07:44;;;;;;;21.10;15.10;;;;;;;;;;5033891;28;20025;-54
2021/10/29 08:10:13;;;;;;;29.40;21.38;;;;;;;;;;5033482;28;20032;-55
2021/10/29 08:12:40;;;;;;;27.48;22.98;;;;;;;;;;5033847;28;20026;-56
2021/10/29 08:15:07;;;;;;;35.25;29.33;;;;;;;;;;5033417;28;20021;-55
2021/10/29 08:17:34;;;;;;;27.05;17.70;;;;;;;;;;5033444;28;20021;-54
2021/10/29 08:20:01;;;;;;;49.72;44.97;;;;;;;;;;5033031;28;20071;-54
2021/10/29 08:22:27;;;;;;;49.67;42.65;;;;;;;;;;5033305;28;20044;-54
2021/10/29 08:24:53;;;;;;;43.85;33.88;;;;;;;;;;5033643;28;20446;-54
2021/10/29 08:27:24;;;;;;;86.72;76.97;;;;;;;;;;5033171;28;20474;-56
2021/10/29 08:29:50;;;;;;;24.70;17.33;;;;;;;;;;5033216;28;20466;-54
2021/10/29 08:32:16;;;;;;;33.75;30.52;;;;;;;;;;5033230;28;20491;-54
2021/10/29 08:34:42;;;;;;;32.10;27.15;;;;;;;;;;5033253;28;20025;-53
2021/10/29 08:37:09;;;;;;;48.50;34.17;;;;;;;;;;5033383;28;20025;-54
2021/10/29 08:39:38;;;;;;;39.40;33.45;;;;;;;;;;5033156;28;20026;-54
2021/10/29 08:42:05;;;;;;;37.25;30.55;;;;;;;;;;5033166;28;20020;-55
2021/10/29 08:44:31;;;;;;;36.50;32.85;;;;;;;;;;5033252;28;20052;-55
2021/10/29 08:47:02;;;;;;;29.00;20.08;;;;;;;;;;5033062;28;20462;-60
2021/10/29 08:49:34;;;;;;;56.67;38.63;;;;;;;;;;5033340;28;20025;-55
2021/10/29 08:52:03;;;;;;;24.35;15.70;;;;;;;;;;5033732;28;20022;-54
2021/10/29 08:54:30;;;;;;;24.52;17.38;;;;;;;;;;5033286;28;20021;-55
2021/10/29 08:56:57;;;;;;;22.58;15.13;;;;;;;;;;5035048;28;20025;-55
2021/10/29 09:02:03;;;;;;;26.15;15.02;;;;;;;;;;5036998;28;20040;-55
2021/10/29 09:07:14;;;;;;;27.88;16.20;;;;;;;;;;5037159;28;20022;-55
2021/10/29 09:10:01;;;;;;;26.30;16.45;;;;;;;;;;5036848;28;20025;-55
2021/10/29 09:32:03;;;;;;;24.50;14.55;;;;;;;;;;5036609;28;20076;-56
2021/10/29 09:34:29;;;;;;;25.17;14.40;;;;;;;;;;5036344;28;20029;-55
2021/10/29 09:36:56;;;;;;;27.00;15.15;;;;;;;;;;5036375;28;20056;-56
2021/10/29 09:39:23;;;;;;;27.88;14.93;;;;;;;;;;5036803;28;20013;-55
2021/10/29 09:42:03;;;;;;;22.23;14.00;;;;;;;;;;5036190;28;20032;-55
2021/10/29 09:44:53;;;;;;;18.75;12.85;;;;;;;;;;5036488;28;20034;-55
2021/10/29 09:47:22;;;;;;;24.08;14.68;;;;;;;;;;5036232;28;20081;-54
2021/10/29 09:50:02;;;;;;;28.45;14.65;;;;;;;;;;5035964;28;20109;-55
2021/10/29 09:57:31;;;;;;;23.52;14.20;;;;;;;;;;5035816;28;20351;-55
2021/10/29 09:59:58;;;;;;;21.35;13.65;;;;;;;;;;5035960;28;20034;-55
2021/10/29 10:02:29;;;;;;;22.63;14.65;;;;;;;;;;5035662;28;20021;-56
2021/10/29 10:04:56;;;;;;;21.15;13.75;;;;;;;;;;5036055;28;20117;-57
2021/10/29 10:07:25;;;;;;;22.95;12.90;;;;;;;;;;5035552;28;20029;-60
2021/10/29 10:09:55;;;;;;;21.58;12.27;;;;;;;;;;5035280;28;20025;-60
2021/10/29 10:12:22;;;;;;;18.63;12.13;;;;;;;;;;5035763;28;20017;-60
2021/10/29 10:14:54;;;;;;;18.15;12.32;;;;;;;;;;5035800;28;20107;-60
2021/10/29 10:17:21;;;;;;;24.65;12.32;;;;;;;;;;5035387;28;20025;-60
2021/10/29 10:19:48;;;;;;;24.17;12.80;;;;;;;;;;5035207;28;20049;-59
2021/10/29 10:22:17;;;;;;;18.55;11.88;;;;;;;;;;5035420;28;20541;-59
2021/10/29 10:24:46;;;;;;;22.13;12.18;;;;;;;;;;5035481;28;20045;-60
2021/10/29 10:45:50;;;;;;;18.52;10.35;;;;;;;;;;5055303;28;20473;-59
2021/10/29 10:48:22;;;;;;;19.65;10.73;;;;;;;;;;5055053;28;20056;-59
2021/10/29 10:50:50;;;;;;;18.75;11.05;;;;;;;;;;5054925;28;20086;-59
2021/10/29 10:53:31;;;;;;;15.25;10.13;;;;;;;;;;5054658;28;20473;-59
2021/10/29 11:01:07;;;;;;;19.73;10.98;;;;;;;;;;5054809;28;20196;-58
2021/10/29 11:06:51;;;;;;;19.55;9.65;;;;;;;;;;5032575;28;20033;-59
2021/10/29 11:12:35;;;;;;;16.45;9.02;;;;;;;;;;4954343;29;20098;-57
2021/10/29 11:15:09;;;;;;;17.13;8.70;;;;;;;;;;4954583;28;20477;-57
2021/10/29 11:17:42;;;;;;;17.27;8.73;;;;;;;;;;4954134;29;20441;-57
2021/10/29 11:20:09;;;;;;;13.70;9.10;;;;;;;;;;4953145;28;20051;-57
2021/10/29 11:22:48;;;;;;;14.63;9.00;;;;;;;;;;4954328;29;20480;-56
2021/10/29 11:25:15;;;;;;;18.15;9.65;;;;;;;;;;4954728;29;20039;-57
2021/10/29 11:27:42;;;;;;;16.25;9.70;;;;;;;;;;4954138;29;20035;-57
2021/10/29 11:30:09;;;;;;;14.25;9.55;;;;;;;;;;4954105;28;20473;-56
2021/10/29 11:32:38;;;;;;;20.08;10.25;;;;;;;;;;4953970;28;20024;-59
2021/10/29 11:35:04;;;;;;;19.02;11.02;;;;;;;;;;4953881;29;20381;-57
2021/10/29 11:37:36;;;;;;;15.75;9.07;;;;;;;;;;4953736;28;20361;-57
2021/10/29 11:40:05;;;;;;;18.23;9.52;;;;;;;;;;4964817;28;20499;-59
2021/10/29 11:42:32;;;;;;;16.40;7.82;;;;;;;;;;4992882;28;20490;-56
2021/10/29 11:45:02;;;;;;;15.10;8.98;;;;;;;;;;4992596;28;20129;-57
2021/10/29 11:47:29;;;;;;;18.52;9.60;;;;;;;;;;4992369;28;20054;-56
2021/10/29 11:50:05;;;;;;;12.90;7.97;;;;;;;;;;5043668;28;20064;-57
2021/10/29 11:52:31;;;;;;;15.82;8.05;;;;;;;;;;5053823;28;20055;-57
2021/10/29 11:55:00;;;;;;;13.00;7.28;;;;;;;;;;5053930;28;20014;-57
2021/10/29 11:58:06;;;;;;;16.67;7.72;;;;;;;;;;5053806;28;20032;-57
2021/10/29 12:00:32;;;;;;;18.17;8.13;;;;;;;;;;5050432;28;20044;-56
2021/10/29 12:05:55;;;;;;;15.07;7.93;;;;;;;;;;5053962;28;20040;-57
2021/10/29 12:08:28;;;;;;;15.30;7.15;;;;;;;;;;5053448;28;20473;-57
2021/10/29 12:11:01;;;;;;;16.17;8.07;;;;;;;;;;5053467;28;20029;-57
2021/10/29 12:13:28;;;;;;;15.88;8.35;;;;;;;;;;5053402;28;20086;-56
2021/10/29 12:15:55;;;;;;;12.77;8.00;;;;;;;;;;5053356;28;20037;-56
2021/10/29 12:18:26;;;;;;;14.45;7.72;;;;;;;;;;5053229;28;20041;-56
2021/10/29 12:20:56;;;;;;;19.67;7.88;;;;;;;;;;5053483;28;20509;-56
2021/10/29 12:23:28;;;;;;;12.38;7.97;;;;;;;;;;5053391;28;20044;-57
2021/10/29 12:26:08;;;;;;;12.98;8.20;;;;;;;;;;5053070;28;20033;-57
2021/10/29 12:28:40;;;;;;;17.40;8.30;;;;;;;;;;5053395;28;20025;-57
2021/10/29 12:53:11;;;;;;;15.45;9.50;;;;;;;;;;5053045;28;20040;-57
2021/10/29 13:04:08;;;;;;;22.77;11.13;;;;;;;;;;5052989;28;20095;-57
2021/10/29 13:06:41;;;;;;;17.58;10.43;;;;;;;;;;5053371;28;20031;-57
2021/10/29 13:09:27;;;;;;;17.58;9.82;;;;;;;;;;5052851;28;20029;-57
2021/10/29 13:11:54;;;;;;;19.75;10.07;;;;;;;;;;5053047;28;20034;-57
2021/10/29 13:14:37;;;;;;;16.83;10.20;;;;;;;;;;5052695;28;20389;-58
2021/10/29 13:17:06;;;;;;;13.93;8.60;;;;;;;;;;5051813;28;20037;-58
2021/10/29 13:19:54;;;;;;;18.90;8.80;;;;;;;;;;5052610;28;20400;-58
2021/10/29 14:32:28;;;;;;;16.45;9.35;;;;;;;;;;5032713;28;20037;-57
2021/10/29 14:34:57;;;;;;;19.48;9.68;;;;;;;;;;5032482;28;20025;-57
2021/10/29 14:44:59;;;;;;;21.55;9.32;;;;;;;;;;5054412;28;20033;-56
2021/10/29 15:16:47;;;;;;;27.48;17.83;;;;;;;;;;5052964;28;20052;-57
2021/10/29 15:41:35;;;;;;;59.08;31.92;;;;;;;;;;5010162;28;20033;-54
2021/10/29 15:47:33;;;;;;;59.15;30.42;;;;;;;;;;5011653;28;20026;-59
2021/10/29 15:49:35;;;;;;;50.80;23.83;;;;;;;;;;4992109;28;20057;-54
2021/10/29 15:52:07;;;;;;;52.58;24.55;;;;;;;;;;5011449;28;20026;-57
2021/10/29 15:54:39;;;;;;;50.92;28.42;;;;;;;;;;5011360;28;20053;-57
2021/10/29 15:57:06;;;;;;;28.67;17.52;;;;;;;;;;5011742;28;20045;-60
2021/10/29 16:18:33;;;;;;;34.35;17.08;;;;;;;;;;5051746;28;20153;-57
2021/10/29 16:20:59;;;;;;;74.53;36.30;;;;;;;;;;5052803;28;20029;-54
2021/10/29 16:23:28;;;;;;;41.03;21.33;;;;;;;;;;5052778;28;20025;-54
2021/10/29 16:26:05;;;;;;;53.83;28.20;;;;;;;;;;5053473;28;20039;-58
2021/10/29 16:28:33;;;;;;;46.22;22.15;;;;;;;;;;5053300;28;20020;-53
2021/10/29 16:31:00;;;;;;;34.40;16.15;;;;;;;;;;5053233;28;20103;-53
2021/10/29 16:33:32;;;;;;;31.35;16.67;;;;;;;;;;5053079;28;20056;-54
2021/10/29 16:36:01;;;;;;;40.33;21.65;;;;;;;;;;5053234;28;20024;-53
2021/10/29 16:38:28;;;;;;;34.75;20.27;;;;;;;;;;5053347;28;20029;-54
2021/10/29 16:40:54;;;;;;;42.78;22.55;;;;;;;;;;5052965;28;20021;-55
2021/10/29 16:43:23;;;;;;;34.10;20.20;;;;;;;;;;5053105;28;20025;-54
2021/10/29 16:45:50;;;;;;;61.88;32.38;;;;;;;;;;5053004;28;20037;-57
2021/10/29 16:48:18;;;;;;;59.45;32.53;;;;;;;;;;5053115;28;20029;-54
2021/10/29 16:50:49;;;;;;;26.83;15.43;;;;;;;;;;5053062;28;20622;-58
2021/10/29 16:53:16;;;;;;;24.08;13.77;;;;;;;;;;5034729;28;20481;-55
2021/10/29 16:55:42;;;;;;;28.55;14.63;;;;;;;;;;5022345;28;20025;-53
2021/10/29 16:58:09;;;;;;;26.60;14.75;;;;;;;;;;5020914;28;20443;-56
2021/10/29 17:00:36;;;;;;;33.60;13.65;;;;;;;;;;5024388;28;20560;-55
2021/10/29 17:03:02;;;;;;;26.05;13.85;;;;;;;;;;5024113;28;20030;-56
2021/10/29 17:05:28;;;;;;;28.33;15.98;;;;;;;;;;5022711;28;20034;-60
2021/10/29 17:07:55;;;;;;;33.72;17.27;;;;;;;;;;5021491;28;20056;-52
2021/10/29 17:10:22;;;;;;;35.70;16.83;;;;;;;;;;5020875;28;20499;-53
2021/10/29 17:12:48;;;;;;;42.53;20.30;;;;;;;;;;5022605;28;20082;-54
2021/10/29 17:15:15;;;;;;;41.08;19.15;;;;;;;;;;5020990;28;20378;-54
2021/10/29 17:17:42;;;;;;;30.42;17.48;;;;;;;;;;5023855;28;20327;-52
2021/10/29 17:20:13;;;;;;;45.80;23.02;;;;;;;;;;5026716;28;20501;-59
2021/10/29 17:22:39;;;;;;;46.78;22.65;;;;;;;;;;5024549;28;20496;-57
2021/10/29 17:25:06;;;;;;;44.53;21.23;;;;;;;;;;5026026;28;20077;-60
2021/10/29 17:27:32;;;;;;;37.58;18.55;;;;;;;;;;5028078;28;20025;-55
2021/10/29 17:29:59;;;;;;;40.35;19.10;;;;;;;;;;5030499;28;20025;-55
2021/10/29 17:32:25;;;;;;;43.50;18.23;;;;;;;;;;5036908;28;20057;-55
2021/10/29 17:34:51;;;;;;;34.45;15.77;;;;;;;;;;5036002;28;20049;-55
2021/10/29 17:37:17;;;;;;;29.45;14.80;;;;;;;;;;5036379;28;20096;-54
2021/10/29 17:39:44;;;;;;;28.17;14.25;;;;;;;;;;5036321;28;20098;-55
2021/10/29 17:42:14;;;;;;;25.60;12.80;;;;;;;;;;5036204;28;20021;-55
2021/10/29 17:44:43;;;;;;;31.92;14.25;;;;;;;;;;5046181;28;20086;-58
2021/10/29 17:47:10;;;;;;;34.70;15.48;;;;;;;;;;5055351;28;20013;-58
2021/10/29 17:49:39;;;;;;;31.23;16.80;;;;;;;;;;5055245;28;20779;-58
2021/10/29 17:52:06;;;;;;;38.42;18.25;;;;;;;;;;5055458;28;20040;-57
2021/10/29 17:54:37;;;;;;;29.90;17.08;;;;;;;;;;5052549;28;20374;-55
2021/10/29 17:57:08;;;;;;;25.50;15.77;;;;;;;;;;5055035;28;20468;-55
2021/10/29 17:59:38;;;;;;;26.45;15.30;;;;;;;;;;5054065;28;20065;-55
2021/10/29 18:02:06;;;;;;;24.67;14.90;;;;;;;;;;5055237;28;20025;-54
2021/10/29 18:04:34;;;;;;;23.88;13.93;;;;;;;;;;5055265;28;20036;-54
2021/10/29 18:07:00;;;;;;;19.67;13.27;;;;;;;;;;5055869;28;20412;-54
2021/10/29 18:09:27;;;;;;;20.65;12.52;;;;;;;;;;5055719;28;20107;-53
2021/10/29 18:11:53;;;;;;;24.08;14.10;;;;;;;;;;5055051;28;20024;-54
2021/10/29 18:14:21;;;;;;;25.88;14.75;;;;;;;;;;5055467;28;20021;-54
2021/10/29 18:16:49;;;;;;;26.05;14.40;;;;;;;;;;5055500;28;20029;-58
2021/10/29 18:19:15;;;;;;;28.48;14.55;;;;;;;;;;5054850;28;20037;-59
2021/10/29 18:21:41;;;;;;;24.02;14.40;;;;;;;;;;5054911;28;20053;-55
2021/10/29 18:24:08;;;;;;;29.52;15.90;;;;;;;;;;5054725;28;20553;-55
2021/10/29 18:26:35;;;;;;;34.05;16.13;;;;;;;;;;5054755;28;20021;-54
2021/10/29 18:29:03;;;;;;;28.90;16.38;;;;;;;;;;5054370;28;20472;-56
2021/10/29 18:31:31;;;;;;;24.08;15.73;;;;;;;;;;5054588;28;20029;-56
2021/10/29 18:33:58;;;;;;;28.00;17.27;;;;;;;;;;5054458;28;20021;-54
2021/10/29 18:36:24;;;;;;;31.33;18.88;;;;;;;;;;5054679;28;20025;-54
2021/10/29 18:38:50;;;;;;;31.45;19.08;;;;;;;;;;5055003;28;20055;-56
2021/10/29 18:41:17;;;;;;;31.02;18.77;;;;;;;;;;5055108;28;20024;-54
2021/10/29 18:43:43;;;;;;;32.67;19.42;;;;;;;;;;5055079;28;20057;-55
2021/10/29 18:46:09;;;;;;;33.17;19.13;;;;;;;;;;5054964;28;20044;-54
2021/10/29 18:48:35;;;;;;;32.80;20.92;;;;;;;;;;5054775;28;20040;-55
2021/10/29 18:51:01;;;;;;;32.13;19.52;;;;;;;;;;5054827;28;20025;-55
2021/10/29 18:53:28;;;;;;;35.58;20.42;;;;;;;;;;5054787;28;20051;-55
2021/10/29 18:55:54;;;;;;;30.75;20.10;;;;;;;;;;5054706;28;20124;-55
2021/10/29 18:58:20;;;;;;;30.15;19.83;;;;;;;;;;5054890;28;20071;-55
2021/10/29 19:00:46;;;;;;;51.95;29.38;;;;;;;;;;5054226;28;20142;-55
2021/10/29 19:03:12;;;;;;;39.50;23.05;;;;;;;;;;5054321;28;20418;-56
2021/10/29 19:05:40;;;;;;;36.40;22.63;;;;;;;;;;5054148;28;20086;-54
2021/10/29 19:08:06;;;;;;;40.08;23.90;;;;;;;;;;5051452;28;20033;-55
2021/10/29 19:10:33;;;;;;;45.95;25.02;;;;;;;;;;5054131;28;20025;-55
2021/10/29 19:12:59;;;;;;;43.53;25.73;;;;;;;;;;5054123;28;20025;-54
2021/10/29 19:15:26;;;;;;;44.70;26.45;;;;;;;;;;5051280;28;20104;-54
2021/10/29 19:17:52;;;;;;;42.72;23.65;;;;;;;;;;5054083;28;20028;-54
2021/10/29 19:20:19;;;;;;;44.55;25.27;;;;;;;;;;5053669;28;20493;-55
2021/10/29 19:22:45;;;;;;;40.80;26.33;;;;;;;;;;5053706;28;20484;-55
2021/10/29 19:25:11;;;;;;;46.97;25.95;;;;;;;;;;5053982;28;20040;-54
2021/10/29 19:27:38;;;;;;;44.85;25.30;;;;;;;;;;5054327;28;20027;-53
2021/10/29 19:30:05;;;;;;;43.80;25.27;;;;;;;;;;5054158;28;20045;-56
2021/10/29 19:32:33;;;;;;;41.60;26.70;;;;;;;;;;5054093;28;20420;-53
2021/10/29 19:35:06;;;;;;;42.83;26.80;;;;;;;;;;5054242;28;20051;-55
2021/10/29 19:37:39;;;;;;;45.85;27.83;;;;;;;;;;5054230;28;20021;-53
2021/10/29 19:40:29;;;;;;;43.88;27.92;;;;;;;;;;5053756;28;20021;-52